createdAt,value
2018-01-16T00:00:52.044Z,99.99
2018-01-16T00:01:52.062Z,99.99
2018-01-16T00:02:52.082Z,99.99
2018-01-16T00:03:52.096Z,99.99
2018-01-16T00:04:52.120Z,99.99
2018-01-16T00:05:52.134Z,99.99
2018-01-16T00:06:52.158Z,99.99
2018-01-16T00:07:52.172Z,99.99
2018-01-16T00:08:52.196Z,99.99
2018-01-16T00:09:52.209Z,99.99
2018-01-16T00:10:52.235Z,99.99
2018-01-16T00:11:52.249Z,99.99
2018-01-16T00:12:52.276Z,99.99
2018-01-16T00:13:52.286Z,99.99
2018-01-16T00:14:52.306Z,99.99
2018-01-16T00:15:52.331Z,99.99
2018-01-16T00:16:52.344Z,99.99
2018-01-16T00:17:52.364Z,99.99
2018-01-16T00:18:52.383Z,99.99
2018-01-16T00:19:52.403Z,99.99
2018-01-16T00:20:52.423Z,99.99
2018-01-16T00:21:52.452Z,99.99
2018-01-16T00:22:52.461Z,99.99
2018-01-16T00:23:52.486Z,99.99
2018-01-16T00:24:52.498Z,99.99
2018-01-16T00:25:52.524Z,99.99
2018-01-16T00:26:52.537Z,99.99
2018-01-16T00:27:52.562Z,99.99
2018-01-16T00:28:52.581Z,99.99
2018-01-16T00:29:52.600Z,99.99
2018-01-16T00:30:52.620Z,99.99
2018-01-16T00:31:52.633Z,99.99
2018-01-16T00:32:52.659Z,99.99
2018-01-16T00:33:52.682Z,99.99
2018-01-16T00:34:52.696Z,99.99
2018-01-16T00:35:52.716Z,99.99
2018-01-16T00:36:52.736Z,99.99
2018-01-16T00:37:52.750Z,99.99
2018-01-16T00:38:52.769Z,99.99
2018-01-16T00:39:52.793Z,99.99
2018-01-16T00:40:52.812Z,99.99
2018-01-16T00:41:52.825Z,99.99
2018-01-16T00:42:52.844Z,99.99
2018-01-16T00:43:52.869Z,99.99
2018-01-16T00:44:52.882Z,99.99
2018-01-16T00:45:52.907Z,99.99
2018-01-16T00:46:52.921Z,99.99
2018-01-16T00:47:52.940Z,99.99
2018-01-16T00:48:52.964Z,99.99
2018-01-16T00:49:52.984Z,99.99
2018-01-16T00:50:53.004Z,99.99
2018-01-16T00:51:53.017Z,99.99
2018-01-16T00:52:53.035Z,99.99
2018-01-16T00:53:53.064Z,99.99
2018-01-16T00:54:53.083Z,99.99
2018-01-16T00:55:53.094Z,99.99
2018-01-16T00:56:53.111Z,99.99
2018-01-16T00:57:53.137Z,99.99
2018-01-16T00:58:53.156Z,99.99
2018-01-16T00:59:53.170Z,99.99
2018-01-16T01:00:53.193Z,99.99
2018-01-16T01:01:53.208Z,99.99
2018-01-16T01:02:53.227Z,99.99
2018-01-16T01:03:53.246Z,99.99
2018-01-16T01:04:53.265Z,99.99
2018-01-16T01:05:53.290Z,99.92
2018-01-16T01:06:53.313Z,99.99
2018-01-16T01:07:53.324Z,99.92
2018-01-16T01:08:53.347Z,99.73
2018-01-16T01:09:53.362Z,99.73
2018-01-16T01:10:53.388Z,99.64
2018-01-16T01:11:53.400Z,99.99
2018-01-16T01:12:53.423Z,99.99
2018-01-16T01:13:53.437Z,99.99
2018-01-16T01:14:53.463Z,99.99
2018-01-16T01:15:53.476Z,99.99
2018-01-16T01:16:53.496Z,99.99
2018-01-16T01:17:53.518Z,99.44
2018-01-16T01:18:53.540Z,97.69
2018-01-16T01:19:53.558Z,97.02
2018-01-16T01:20:53.577Z,95.98
2018-01-16T01:21:53.596Z,96.93
2018-01-16T01:22:53.610Z,97.02
2018-01-16T01:23:53.634Z,98.07
2018-01-16T01:24:53.648Z,98.16
2018-01-16T01:25:53.671Z,98.45
2018-01-16T01:26:53.686Z,98.64
2018-01-16T01:27:53.710Z,99.40
2018-01-16T01:28:53.723Z,98.92
2018-01-16T01:29:53.748Z,99.11
2018-01-16T01:30:53.762Z,99.02
2018-01-16T01:31:53.786Z,99.21
2018-01-16T01:32:53.798Z,99.49
2018-01-16T01:33:53.823Z,99.68
2018-01-16T01:34:53.838Z,99.21
2018-01-16T01:35:53.862Z,99.21
2018-01-16T01:36:53.880Z,99.02
2018-01-16T01:37:53.898Z,99.11
2018-01-16T01:38:53.913Z,98.54
2018-01-16T01:39:53.931Z,99.11
2018-01-16T01:40:53.951Z,99.02
2018-01-16T01:41:53.976Z,98.83
2018-01-16T01:42:53.993Z,99.49
2018-01-16T01:43:54.007Z,99.40
2018-01-16T01:44:54.025Z,99.58
2018-01-16T01:45:54.050Z,99.40
2018-01-16T01:46:54.070Z,99.40
2018-01-16T01:47:54.082Z,99.49
2018-01-16T01:48:54.111Z,99.30
2018-01-16T01:49:54.119Z,99.30
2018-01-16T01:50:54.140Z,99.21
2018-01-16T01:51:54.163Z,98.92
2018-01-16T01:52:54.182Z,99.58
2018-01-16T01:53:54.195Z,99.40
2018-01-16T01:54:54.215Z,99.21
2018-01-16T01:55:54.239Z,98.64
2018-01-16T01:56:54.257Z,99.02
2018-01-16T01:57:54.272Z,98.16
2018-01-16T01:58:54.291Z,98.83
2018-01-16T01:59:54.316Z,98.73
2018-01-16T02:00:54.333Z,98.64
2018-01-16T02:01:54.347Z,98.35
2018-01-16T02:02:54.366Z,98.73
2018-01-16T02:03:54.391Z,99.30
2018-01-16T02:04:54.409Z,98.64
2018-01-16T02:05:54.423Z,99.11
2018-01-16T02:06:54.447Z,99.02
2018-01-16T02:07:54.462Z,99.68
2018-01-16T02:08:54.485Z,99.40
2018-01-16T02:09:54.499Z,99.11
2018-01-16T02:10:54.524Z,98.45
2018-01-16T02:11:54.537Z,97.88
2018-01-16T02:12:54.561Z,97.88
2018-01-16T02:13:54.574Z,98.83
2018-01-16T02:14:54.599Z,98.54
2018-01-16T02:15:54.614Z,98.64
2018-01-16T02:16:54.637Z,97.97
2018-01-16T02:17:54.650Z,98.83
2018-01-16T02:18:54.675Z,98.54
2018-01-16T02:19:54.688Z,98.45
2018-01-16T02:20:54.758Z,98.35
2018-01-16T02:21:54.732Z,99.02
2018-01-16T02:22:54.746Z,98.73
2018-01-16T02:23:54.770Z,97.88
2018-01-16T02:24:54.782Z,97.88
2018-01-16T02:25:54.807Z,97.69
2018-01-16T02:26:54.820Z,97.78
2018-01-16T02:27:54.846Z,97.50
2018-01-16T02:28:54.865Z,97.69
2018-01-16T02:29:54.883Z,97.31
2018-01-16T02:30:54.898Z,97.22
2018-01-16T02:31:54.921Z,97.60
2018-01-16T02:32:54.934Z,97.88
2018-01-16T02:33:54.958Z,97.60
2018-01-16T02:34:54.973Z,97.97
2018-01-16T02:35:54.997Z,97.97
2018-01-16T02:36:55.015Z,98.64
2018-01-16T02:37:55.029Z,97.88
2018-01-16T02:38:55.047Z,98.07
2018-01-16T02:39:55.072Z,98.35
2018-01-16T02:40:55.090Z,98.54
2018-01-16T02:41:55.103Z,98.64
2018-01-16T02:42:55.123Z,98.16
2018-01-16T02:43:55.148Z,98.35
2018-01-16T02:44:55.165Z,99.02
2018-01-16T02:45:55.179Z,98.64
2018-01-16T02:46:55.199Z,98.92
2018-01-16T02:47:55.223Z,99.02
2018-01-16T02:48:55.240Z,99.99
2018-01-16T02:49:55.255Z,99.49
2018-01-16T02:50:55.273Z,99.21
2018-01-16T02:51:55.298Z,99.49
2018-01-16T02:52:55.316Z,99.11
2018-01-16T02:53:55.329Z,99.11
2018-01-16T02:54:55.348Z,99.49
2018-01-16T02:55:55.373Z,99.49
2018-01-16T02:56:55.391Z,99.02
2018-01-16T02:57:55.404Z,98.54
2018-01-16T02:58:55.423Z,98.64
2018-01-16T02:59:55.449Z,98.64
2018-01-16T03:00:55.467Z,98.92
2018-01-16T03:01:55.480Z,98.59
2018-01-16T03:02:55.505Z,99.35
2018-01-16T03:03:55.516Z,99.26
2018-01-16T03:04:55.541Z,98.97
2018-01-16T03:05:55.553Z,98.97
2018-01-16T03:06:55.578Z,99.35
2018-01-16T03:07:55.591Z,99.54
2018-01-16T03:08:55.617Z,99.54
2018-01-16T03:09:55.628Z,99.63
2018-01-16T03:10:55.653Z,99.99
2018-01-16T03:11:55.667Z,99.99
2018-01-16T03:12:55.690Z,99.99
2018-01-16T03:13:55.703Z,99.99
2018-01-16T03:14:55.728Z,99.99
2018-01-16T03:15:55.741Z,99.99
2018-01-16T03:16:55.760Z,99.99
2018-01-16T03:17:55.784Z,99.99
2018-01-16T03:18:55.796Z,99.99
2018-01-16T03:19:55.822Z,99.99
2018-01-16T03:20:55.834Z,99.99
2018-01-16T03:21:55.859Z,99.99
2018-01-16T03:22:55.872Z,99.99
2018-01-16T03:23:55.896Z,99.99
2018-01-16T03:24:55.908Z,99.99
2018-01-16T03:25:55.932Z,99.99
2018-01-16T03:26:55.946Z,99.99
2018-01-16T03:27:55.971Z,99.99
2018-01-16T03:28:55.984Z,99.99
2018-01-16T03:29:56.008Z,99.99
2018-01-16T03:30:56.022Z,99.99
2018-01-16T03:31:56.047Z,99.99
2018-01-16T03:32:56.063Z,99.99
2018-01-16T03:33:56.076Z,99.99
2018-01-16T03:34:56.095Z,99.99
2018-01-16T03:35:56.118Z,99.99
2018-01-16T03:36:56.138Z,99.99
2018-01-16T03:37:56.151Z,99.99
2018-01-16T03:38:56.174Z,99.99
2018-01-16T03:39:56.195Z,99.99
2018-01-16T03:40:56.211Z,99.99
2018-01-16T03:41:56.225Z,99.99
2018-01-16T03:42:56.244Z,99.82
2018-01-16T03:43:56.269Z,99.99
2018-01-16T03:44:56.288Z,99.99
2018-01-16T03:45:56.300Z,99.99
2018-01-16T03:46:56.318Z,99.99
2018-01-16T03:47:56.342Z,99.99
2018-01-16T03:48:56.354Z,99.99
2018-01-16T03:49:56.379Z,99.82
2018-01-16T03:50:56.401Z,99.82
2018-01-16T03:51:56.412Z,99.99
2018-01-16T03:52:56.429Z,99.99
2018-01-16T03:53:56.453Z,99.99
2018-01-16T03:54:56.472Z,99.99
2018-01-16T03:55:56.535Z,99.82
2018-01-16T03:56:56.504Z,99.91
2018-01-16T03:57:56.522Z,99.99
2018-01-16T03:58:56.546Z,99.35
2018-01-16T03:59:56.560Z,99.99
2018-01-16T04:00:56.576Z,99.91
2018-01-16T04:01:56.601Z,99.99
2018-01-16T04:02:56.621Z,99.99
2018-01-16T04:03:56.639Z,99.99
2018-01-16T04:04:56.656Z,99.99
2018-01-16T04:05:56.669Z,99.99
2018-01-16T04:06:56.688Z,99.91
2018-01-16T04:07:56.713Z,99.35
2018-01-16T04:08:56.731Z,99.99
2018-01-16T04:09:56.745Z,99.26
2018-01-16T04:10:56.764Z,99.44
2018-01-16T04:11:56.786Z,99.16
2018-01-16T04:12:56.805Z,99.91
2018-01-16T04:13:56.824Z,99.99
2018-01-16T04:14:56.843Z,99.99
2018-01-16T04:15:56.856Z,99.99
2018-01-16T04:16:56.879Z,99.73
2018-01-16T04:17:56.922Z,99.63
2018-01-16T04:18:56.916Z,99.54
2018-01-16T04:19:56.935Z,99.35
2018-01-16T04:20:56.947Z,99.26
2018-01-16T04:21:56.972Z,99.68
2018-01-16T04:22:56.985Z,99.35
2018-01-16T04:23:57.009Z,99.06
2018-01-16T04:24:57.020Z,99.54
2018-01-16T04:25:57.046Z,99.58
2018-01-16T04:26:57.058Z,99.30
2018-01-16T04:27:57.086Z,99.02
2018-01-16T04:28:57.101Z,98.97
2018-01-16T04:29:57.119Z,99.40
2018-01-16T04:30:57.132Z,98.54
2018-01-16T04:31:57.157Z,98.35
2018-01-16T04:32:57.169Z,98.83
2018-01-16T04:33:57.187Z,98.83
2018-01-16T04:34:57.206Z,99.30
2018-01-16T04:35:57.225Z,99.30
2018-01-16T04:36:57.249Z,99.68
2018-01-16T04:37:57.262Z,99.58
2018-01-16T04:38:57.287Z,99.99
2018-01-16T04:39:57.300Z,99.99
2018-01-16T04:40:57.348Z,99.99
2018-01-16T04:41:57.335Z,99.99
2018-01-16T04:42:57.362Z,99.99
2018-01-16T04:43:57.373Z,99.99
2018-01-16T04:44:57.391Z,99.99
2018-01-16T04:45:57.411Z,99.99
2018-01-16T04:46:57.434Z,99.99
2018-01-16T04:47:57.451Z,99.99
2018-01-16T04:48:57.466Z,99.87
2018-01-16T04:49:57.490Z,98.45
2018-01-16T04:50:57.509Z,98.07
2018-01-16T04:51:57.528Z,98.97
2018-01-16T04:52:57.548Z,97.41
2018-01-16T04:53:57.558Z,96.78
2018-01-16T04:54:57.578Z,96.69
2018-01-16T04:55:57.600Z,96.64
2018-01-16T04:56:57.632Z,96.88
2018-01-16T04:57:57.632Z,97.07
2018-01-16T04:58:57.652Z,97.36
2018-01-16T04:59:57.676Z,96.97
2018-01-16T05:00:57.688Z,96.03
2018-01-16T05:01:57.707Z,95.36
2018-01-16T05:02:57.731Z,95.55
2018-01-16T05:03:57.747Z,96.22
2018-01-16T05:04:57.761Z,96.88
2018-01-16T05:05:57.786Z,96.69
2018-01-16T05:06:57.805Z,96.88
2018-01-16T05:07:57.823Z,97.55
2018-01-16T05:08:57.835Z,97.17
2018-01-16T05:09:57.859Z,97.64
2018-01-16T05:10:57.873Z,97.45
2018-01-16T05:11:57.901Z,97.55
2018-01-16T05:12:57.909Z,97.83
2018-01-16T05:13:57.933Z,97.74
2018-01-16T05:14:57.947Z,98.11
2018-01-16T05:15:57.970Z,97.55
2018-01-16T05:16:57.990Z,97.64
2018-01-16T05:17:58.007Z,97.92
2018-01-16T05:18:58.026Z,97.64
2018-01-16T05:19:58.039Z,97.64
2018-01-16T05:20:58.112Z,98.59
2018-01-16T05:21:58.075Z,98.49
2018-01-16T05:22:58.099Z,98.02
2018-01-16T05:23:58.118Z,98.11
2018-01-16T05:24:58.136Z,98.78
2018-01-16T05:25:58.152Z,98.59
2018-01-16T05:26:58.173Z,98.68
2018-01-16T05:27:58.185Z,98.59
2018-01-16T05:28:58.209Z,98.40
2018-01-16T05:29:58.222Z,98.11
2018-01-16T05:30:58.246Z,98.30
2018-01-16T05:31:58.258Z,97.74
2018-01-16T05:32:58.284Z,97.64
2018-01-16T05:33:58.295Z,96.97
2018-01-16T05:34:58.314Z,96.97
2018-01-16T05:35:58.332Z,96.97
2018-01-16T05:36:58.350Z,97.17
2018-01-16T05:37:58.368Z,97.07
2018-01-16T05:38:58.393Z,97.26
2018-01-16T05:39:58.412Z,97.55
2018-01-16T05:40:58.429Z,97.07
2018-01-16T05:41:58.442Z,97.55
2018-01-16T05:42:58.461Z,97.17
2018-01-16T05:43:58.486Z,97.74
2018-01-16T05:44:58.503Z,97.64
2018-01-16T05:45:58.515Z,97.69
2018-01-16T05:46:58.535Z,98.54
2018-01-16T05:47:58.558Z,98.59
2018-01-16T05:48:58.576Z,98.40
2018-01-16T05:49:58.590Z,98.78
2018-01-16T05:50:58.614Z,99.54
2018-01-16T05:51:58.626Z,99.16
2018-01-16T05:52:58.644Z,98.97
2018-01-16T05:53:58.665Z,98.59
2018-01-16T05:54:58.687Z,98.30
2018-01-16T05:55:58.707Z,98.78
2018-01-16T05:56:58.717Z,98.59
2018-01-16T05:57:58.742Z,98.97
2018-01-16T05:58:58.755Z,99.44
2018-01-16T05:59:58.778Z,99.26
2018-01-16T06:00:58.796Z,99.35
2018-01-16T06:01:58.815Z,99.44
2018-01-16T06:02:58.828Z,99.63
2018-01-16T06:03:58.847Z,99.06
2018-01-16T06:04:58.863Z,98.49
2018-01-16T06:05:58.889Z,98.78
2018-01-16T06:06:58.907Z,98.97
2018-01-16T06:07:58.919Z,99.54
2018-01-16T06:08:58.937Z,99.26
2018-01-16T06:09:58.962Z,99.54
2018-01-16T06:10:58.981Z,99.44
2018-01-16T06:11:58.994Z,99.35
2018-01-16T06:12:59.016Z,99.54
2018-01-16T06:13:59.029Z,99.06
2018-01-16T06:14:59.054Z,98.97
2018-01-16T06:15:59.067Z,99.63
2018-01-16T06:16:59.084Z,99.06
2018-01-16T06:17:59.103Z,99.35
2018-01-16T06:18:59.128Z,98.78
2018-01-16T06:19:59.147Z,98.97
2018-01-16T06:20:59.163Z,99.63
2018-01-16T06:21:59.181Z,98.87
2018-01-16T06:22:59.195Z,98.54
2018-01-16T06:23:59.220Z,98.97
2018-01-16T06:24:59.238Z,98.97
2018-01-16T06:25:59.251Z,99.63
2018-01-16T06:26:59.270Z,99.63
2018-01-16T06:27:59.293Z,99.06
2018-01-16T06:28:59.306Z,98.68
2018-01-16T06:29:59.330Z,98.45
2018-01-16T06:30:59.349Z,98.54
2018-01-16T06:31:59.368Z,97.88
2018-01-16T06:32:59.385Z,98.64
2018-01-16T06:33:59.437Z,99.02
2018-01-16T06:34:59.427Z,98.64
2018-01-16T06:35:59.445Z,98.45
2018-01-16T06:36:59.453Z,98.64
2018-01-16T06:37:59.478Z,98.54
2018-01-16T06:38:59.491Z,99.11
2018-01-16T06:39:59.515Z,97.88
2018-01-16T06:40:59.527Z,97.69
2018-01-16T06:41:59.553Z,98.16
2018-01-16T06:42:59.566Z,97.69
2018-01-16T06:43:59.590Z,97.60
2018-01-16T06:44:59.608Z,97.22
2018-01-16T06:45:59.622Z,97.60
2018-01-16T06:46:59.639Z,98.26
2018-01-16T06:47:59.661Z,97.88
2018-01-16T06:48:59.677Z,97.88
2018-01-16T06:49:59.695Z,97.41
2018-01-16T06:50:59.720Z,97.41
2018-01-16T06:51:59.734Z,97.69
2018-01-16T06:52:59.756Z,97.31
2018-01-16T06:53:59.769Z,97.22
2018-01-16T06:54:59.794Z,97.02
2018-01-16T06:55:59.807Z,96.45
2018-01-16T06:56:59.829Z,96.64
2018-01-16T06:57:59.844Z,96.74
2018-01-16T06:58:59.877Z,97.88
2018-01-16T06:59:59.881Z,96.08
2018-01-16T07:00:59.900Z,94.93
2018-01-16T07:01:59.924Z,95.12
2018-01-16T07:02:59.936Z,94.93
2018-01-16T07:03:59.964Z,95.70
2018-01-16T07:05:00.183Z,95.51
2018-01-16T07:05:59.998Z,95.41
2018-01-16T07:07:00.013Z,95.70
2018-01-16T07:08:00.036Z,95.41
2018-01-16T07:09:00.055Z,94.65
2018-01-16T07:10:00.072Z,94.56
2018-01-16T07:11:00.088Z,94.56
2018-01-16T07:12:00.111Z,94.74
2018-01-16T07:13:00.130Z,94.46
2018-01-16T07:14:00.141Z,94.08
2018-01-16T07:15:00.161Z,93.99
2018-01-16T07:16:00.186Z,94.37
2018-01-16T07:17:00.198Z,94.27
2018-01-16T07:18:00.217Z,94.37
2018-01-16T07:19:00.244Z,94.56
2018-01-16T07:20:00.254Z,94.46
2018-01-16T07:21:00.273Z,94.08
2018-01-16T07:22:00.297Z,94.18
2018-01-16T07:23:00.316Z,95.31
2018-01-16T07:24:00.335Z,95.03
2018-01-16T07:25:00.348Z,95.60
2018-01-16T07:26:00.372Z,95.03
2018-01-16T07:27:00.385Z,95.60
2018-01-16T07:28:00.409Z,95.70
2018-01-16T07:29:00.422Z,95.31
2018-01-16T07:30:00.446Z,95.98
2018-01-16T07:31:00.460Z,95.51
2018-01-16T07:32:00.484Z,95.89
2018-01-16T07:33:00.504Z,96.17
2018-01-16T07:34:00.522Z,95.98
2018-01-16T07:35:00.540Z,96.93
2018-01-16T07:36:00.558Z,97.02
2018-01-16T07:37:00.582Z,96.93
2018-01-16T07:38:01.060Z,96.64
2018-01-16T07:39:00.613Z,96.64
2018-01-16T07:40:00.634Z,96.83
2018-01-16T07:41:00.652Z,96.64
2018-01-16T07:42:00.668Z,96.74
2018-01-16T07:43:00.691Z,96.36
2018-01-16T07:44:00.704Z,96.36
2018-01-16T07:45:00.729Z,96.64
2018-01-16T07:46:00.746Z,97.02
2018-01-16T07:47:00.776Z,96.45
2018-01-16T07:48:00.779Z,96.64
2018-01-16T07:49:00.818Z,96.26
2018-01-16T07:50:00.818Z,96.45
2018-01-16T07:51:00.838Z,96.55
2018-01-16T07:52:00.855Z,96.55
2018-01-16T07:53:00.876Z,95.89
2018-01-16T07:54:00.898Z,95.98
2018-01-16T07:55:00.915Z,96.08
2018-01-16T07:56:00.938Z,95.98
2018-01-16T07:57:00.957Z,95.98
2018-01-16T07:58:00.974Z,95.89
2018-01-16T07:59:01.007Z,95.98
2018-01-16T08:00:01.044Z,96.08
2018-01-16T08:01:01.035Z,96.26
2018-01-16T08:02:01.041Z,96.64
2018-01-16T08:03:01.079Z,96.36
2018-01-16T08:04:01.084Z,96.45
2018-01-16T08:05:01.103Z,95.51
2018-01-16T08:06:01.118Z,95.79
2018-01-16T08:07:01.137Z,95.70
2018-01-16T08:08:01.160Z,95.51
2018-01-16T08:09:01.177Z,95.51
2018-01-16T08:10:01.191Z,95.51
2018-01-16T08:11:01.214Z,95.41
2018-01-16T08:12:01.241Z,95.22
2018-01-16T08:13:01.259Z,95.03
2018-01-16T08:14:01.273Z,94.74
2018-01-16T08:15:01.284Z,94.84
2018-01-16T08:16:01.309Z,94.65
2018-01-16T08:17:01.329Z,94.93
2018-01-16T08:18:01.341Z,95.12
2018-01-16T08:19:01.361Z,94.93
2018-01-16T08:20:01.386Z,94.79
2018-01-16T08:21:01.397Z,95.12
2018-01-16T08:22:01.423Z,94.70
2018-01-16T08:23:01.440Z,94.89
2018-01-16T08:24:01.456Z,93.70
2018-01-16T08:25:01.473Z,94.60
2018-01-16T08:26:01.498Z,94.89
2018-01-16T08:27:01.519Z,95.46
2018-01-16T08:28:01.532Z,94.70
2018-01-16T08:29:01.549Z,95.07
2018-01-16T08:30:01.574Z,95.46
2018-01-16T08:31:01.591Z,96.31
2018-01-16T08:32:01.606Z,96.92
2018-01-16T08:33:01.625Z,96.64
2018-01-16T08:34:01.649Z,96.73
2018-01-16T08:35:01.669Z,96.92
2018-01-16T08:36:01.681Z,97.40
2018-01-16T08:37:01.700Z,97.88
2018-01-16T08:38:01.723Z,97.78
2018-01-16T08:39:01.737Z,98.73
2018-01-16T08:40:01.760Z,98.58
2018-01-16T08:41:01.775Z,99.34
2018-01-16T08:42:01.797Z,99.63
2018-01-16T08:43:01.811Z,99.34
2018-01-16T08:44:01.835Z,98.68
2018-01-16T08:45:01.847Z,98.96
2018-01-16T08:46:01.872Z,99.25
2018-01-16T08:47:01.884Z,99.72
2018-01-16T08:48:01.917Z,99.06
2018-01-16T08:49:01.920Z,99.99
2018-01-16T08:50:01.945Z,99.99
2018-01-16T08:51:01.958Z,99.99
2018-01-16T08:52:01.982Z,99.99
2018-01-16T08:53:01.999Z,99.86
2018-01-16T08:54:02.013Z,99.99
2018-01-16T08:55:02.036Z,99.99
2018-01-16T08:56:02.049Z,99.06
2018-01-16T08:57:02.071Z,99.25
2018-01-16T08:58:02.084Z,99.06
2018-01-16T08:59:02.109Z,99.34
2018-01-16T09:00:02.122Z,99.53
2018-01-16T09:01:02.144Z,99.53
2018-01-16T09:02:02.157Z,99.34
2018-01-16T09:03:02.180Z,99.34
2018-01-16T09:04:02.192Z,98.87
2018-01-16T09:05:02.216Z,99.99
2018-01-16T09:06:02.228Z,99.15
2018-01-16T09:07:02.252Z,99.99
2018-01-16T09:08:02.266Z,99.99
2018-01-16T09:09:02.287Z,99.99
2018-01-16T09:10:02.300Z,99.99
2018-01-16T09:11:02.319Z,99.99
2018-01-16T09:12:02.341Z,99.99
2018-01-16T09:13:02.361Z,99.99
2018-01-16T09:14:02.371Z,99.99
2018-01-16T09:15:02.395Z,99.99
2018-01-16T09:16:02.414Z,99.99
2018-01-16T09:17:02.425Z,99.99
2018-01-16T09:18:02.448Z,99.99
2018-01-16T09:19:02.466Z,99.99
2018-01-16T09:20:02.478Z,99.99
2018-01-16T09:21:02.495Z,99.99
2018-01-16T09:22:02.518Z,99.99
2018-01-16T09:23:02.536Z,99.99
2018-01-16T09:24:02.596Z,99.99
2018-01-16T09:25:02.626Z,99.99
2018-01-16T09:26:02.740Z,99.99
2018-01-16T09:27:02.607Z,99.99
2018-01-16T09:28:02.620Z,99.99
2018-01-16T09:29:02.636Z,99.99
2018-01-16T09:30:02.660Z,99.99
2018-01-16T09:31:02.677Z,99.99
2018-01-16T09:32:02.689Z,99.99
2018-01-16T09:33:02.709Z,99.99
2018-01-16T09:34:02.730Z,99.99
2018-01-16T09:35:02.744Z,99.99
2018-01-16T09:36:02.765Z,99.99
2018-01-16T09:37:02.836Z,99.99
2018-01-16T09:38:02.800Z,99.99
2018-01-16T09:39:02.823Z,99.99
2018-01-16T09:40:02.840Z,99.99
2018-01-16T09:41:02.849Z,99.99
2018-01-16T09:42:02.874Z,99.99
2018-01-16T09:43:02.886Z,99.99
2018-01-16T09:44:02.909Z,99.99
2018-01-16T09:45:02.922Z,99.99
2018-01-16T09:46:02.944Z,99.99
2018-01-16T09:47:02.957Z,99.99
2018-01-16T09:48:02.980Z,99.99
2018-01-16T09:49:02.998Z,99.99
2018-01-16T09:50:03.008Z,99.99
2018-01-16T09:51:03.035Z,99.99
2018-01-16T09:52:03.044Z,99.99
2018-01-16T09:53:03.066Z,99.99
2018-01-16T09:54:03.075Z,99.99
2018-01-16T09:55:03.100Z,99.99
2018-01-16T09:56:03.115Z,99.99
2018-01-16T09:57:03.134Z,99.99
2018-01-16T09:58:03.146Z,99.99
2018-01-16T09:59:03.169Z,99.99
2018-01-16T10:00:03.184Z,99.99
2018-01-16T10:01:03.205Z,99.99
2018-01-16T10:02:03.216Z,99.99
2018-01-16T10:03:03.239Z,99.99
2018-01-16T10:04:03.252Z,99.99
2018-01-16T10:05:03.268Z,99.99
2018-01-16T10:06:03.291Z,99.99
2018-01-16T10:07:03.308Z,99.99
2018-01-16T10:08:03.320Z,99.99
2018-01-16T10:09:03.337Z,99.99
2018-01-16T10:10:03.361Z,99.99
2018-01-16T10:11:03.378Z,99.99
2018-01-16T10:12:03.393Z,99.99
2018-01-16T10:13:03.406Z,99.99
2018-01-16T10:14:03.430Z,99.99
2018-01-16T10:15:03.481Z,99.99
2018-01-16T10:16:03.459Z,99.99
2018-01-16T10:17:03.487Z,99.99
2018-01-16T10:18:03.498Z,99.99
2018-01-16T10:19:03.516Z,99.99
2018-01-16T10:20:03.533Z,99.99
2018-01-16T10:21:03.550Z,99.99
2018-01-16T10:22:03.568Z,99.99
2018-01-16T10:23:03.584Z,99.99
2018-01-16T10:24:03.597Z,99.99
2018-01-16T10:25:03.618Z,99.99
2018-01-16T10:26:03.631Z,99.99
2018-01-16T10:27:03.653Z,99.99
2018-01-16T10:28:03.665Z,99.99
2018-01-16T10:29:03.725Z,99.99
2018-01-16T10:30:03.700Z,99.99
2018-01-16T10:31:03.726Z,99.99
2018-01-16T10:32:03.739Z,99.99
2018-01-16T10:33:03.750Z,99.99
2018-01-16T10:34:03.775Z,99.99
2018-01-16T10:35:03.785Z,99.99
2018-01-16T10:36:03.803Z,99.20
2018-01-16T10:37:03.825Z,99.01
2018-01-16T10:38:03.838Z,99.99
2018-01-16T10:39:03.855Z,99.96
2018-01-16T10:40:03.878Z,99.99
2018-01-16T10:41:03.894Z,99.99
2018-01-16T10:42:03.907Z,99.99
2018-01-16T10:43:03.925Z,99.99
2018-01-16T10:44:03.947Z,99.99
2018-01-16T10:45:03.960Z,99.99
2018-01-16T10:46:03.983Z,99.99
2018-01-16T10:47:03.995Z,99.99
2018-01-16T10:48:04.012Z,99.99
2018-01-16T10:49:04.035Z,99.99
2018-01-16T10:50:04.052Z,99.99
2018-01-16T10:51:04.071Z,99.99
2018-01-16T10:52:04.083Z,99.99
2018-01-16T10:53:04.105Z,99.99
2018-01-16T10:54:04.117Z,99.99
2018-01-16T10:55:04.134Z,99.99
2018-01-16T10:56:04.159Z,99.99
2018-01-16T10:57:04.175Z,99.99
2018-01-16T10:58:04.188Z,99.99
2018-01-16T10:59:04.206Z,99.99
2018-01-16T11:00:04.228Z,99.99
2018-01-16T11:01:04.246Z,99.99
2018-01-16T11:02:04.257Z,99.99
2018-01-16T11:03:04.287Z,99.99
2018-01-16T11:04:04.299Z,99.53
2018-01-16T11:05:04.310Z,98.68
2018-01-16T11:06:04.327Z,97.12
2018-01-16T11:07:04.345Z,96.55
2018-01-16T11:08:04.369Z,96.55
2018-01-16T11:09:04.380Z,97.59
2018-01-16T11:10:04.406Z,97.69
2018-01-16T11:11:04.417Z,96.83
2018-01-16T11:12:04.441Z,97.21
2018-01-16T11:13:04.453Z,96.83
2018-01-16T11:14:04.476Z,96.45
2018-01-16T11:15:04.569Z,95.98
2018-01-16T11:16:04.564Z,96.08
2018-01-16T11:17:04.523Z,96.45
2018-01-16T11:18:04.549Z,96.17
2018-01-16T11:19:04.566Z,95.31
2018-01-16T11:20:04.594Z,95.69
2018-01-16T11:21:04.606Z,96.69
2018-01-16T11:22:04.620Z,96.26
2018-01-16T11:23:04.638Z,96.26
2018-01-16T11:24:04.660Z,97.31
2018-01-16T11:25:04.669Z,96.64
2018-01-16T11:26:04.692Z,96.36
2018-01-16T11:27:04.706Z,95.79
2018-01-16T11:28:04.778Z,96.55
2018-01-16T11:29:04.741Z,96.08
2018-01-16T11:30:04.764Z,96.45
2018-01-16T11:31:04.776Z,96.92
2018-01-16T11:32:04.801Z,96.55
2018-01-16T11:33:04.819Z,97.50
2018-01-16T11:34:04.832Z,97.40
2018-01-16T11:35:04.850Z,97.31
2018-01-16T11:36:04.874Z,96.36
2018-01-16T11:37:04.887Z,96.73
2018-01-16T11:38:04.905Z,96.73
2018-01-16T11:39:04.928Z,96.92
2018-01-16T11:40:04.942Z,96.64
2018-01-16T11:41:04.964Z,98.07
2018-01-16T11:42:04.976Z,98.16
2018-01-16T11:43:05.001Z,97.50
2018-01-16T11:44:05.014Z,97.97
2018-01-16T11:45:05.036Z,97.50
2018-01-16T11:46:05.050Z,96.83
2018-01-16T11:47:05.073Z,97.12
2018-01-16T11:48:05.089Z,97.50
2018-01-16T11:49:05.104Z,97.02
2018-01-16T11:50:05.129Z,96.64
2018-01-16T11:51:05.142Z,96.45
2018-01-16T11:52:05.191Z,96.83
2018-01-16T11:53:05.183Z,96.92
2018-01-16T11:54:05.201Z,96.73
2018-01-16T11:55:05.222Z,96.92
2018-01-16T11:56:05.232Z,96.73
2018-01-16T11:57:05.250Z,96.92
2018-01-16T11:58:05.274Z,96.92
2018-01-16T11:59:05.294Z,95.41
2018-01-16T12:00:05.306Z,96.36
2018-01-16T12:01:05.324Z,96.45
2018-01-16T12:02:05.348Z,96.73
2018-01-16T12:03:05.367Z,96.26
2018-01-16T12:04:05.398Z,96.73
2018-01-16T12:05:05.407Z,96.73
2018-01-16T12:06:05.416Z,97.12
2018-01-16T12:07:05.442Z,96.26
2018-01-16T12:08:05.460Z,96.55
2018-01-16T12:09:05.471Z,96.92
2018-01-16T12:10:05.492Z,97.31
2018-01-16T12:11:05.510Z,97.50
2018-01-16T12:12:05.540Z,96.92
2018-01-16T12:13:05.552Z,96.92
2018-01-16T12:14:05.565Z,95.74
2018-01-16T12:15:05.585Z,95.03
2018-01-16T12:16:05.703Z,94.70
2018-01-16T12:17:05.627Z,94.60
2018-01-16T12:18:05.640Z,92.85
2018-01-16T12:19:05.660Z,91.71
2018-01-16T12:20:05.744Z,92.37
2018-01-16T12:21:05.698Z,92.23
2018-01-16T12:22:05.740Z,93.37
2018-01-16T12:23:05.758Z,93.80
2018-01-16T12:24:05.766Z,94.74
2018-01-16T12:25:05.772Z,95.41
2018-01-16T12:26:05.798Z,95.74
2018-01-16T12:27:05.810Z,94.27
2018-01-16T12:28:05.834Z,90.85
2018-01-16T12:29:05.853Z,90.19
2018-01-16T12:30:05.868Z,91.14
2018-01-16T12:31:05.893Z,91.24
2018-01-16T12:32:05.905Z,87.09
2018-01-16T12:33:05.967Z,82.70
2018-01-16T12:34:05.943Z,81.48
2018-01-16T12:35:05.969Z,84.58
2018-01-16T12:36:05.983Z,86.43
2018-01-16T12:37:06.007Z,87.19
2018-01-16T12:38:06.058Z,86.91
2018-01-16T12:39:06.049Z,86.68
2018-01-16T12:40:06.063Z,88.10
2018-01-16T12:41:06.087Z,87.86
2018-01-16T12:42:06.103Z,87.24
2018-01-16T12:43:06.135Z,87.82
2018-01-16T12:44:06.145Z,89.05
2018-01-16T12:45:06.163Z,89.05
2018-01-16T12:46:06.190Z,88.86
2018-01-16T12:47:06.211Z,88.39
2018-01-16T12:48:06.225Z,87.29
2018-01-16T12:49:06.245Z,86.15
2018-01-16T12:50:06.322Z,85.86
2018-01-16T12:51:06.291Z,85.77
2018-01-16T12:52:06.304Z,85.49
2018-01-16T12:53:06.331Z,84.53